Time;durP1;ratioP1;P1;durP2;ratioP2;P2;SDS_P1;SDS_P2;PMS_P1;PMS_P2;Temp;Humidity;BMP_temperature;BMP_pressure;BME280_temperature;BME280_humidity;BME280_pressure;Samples;Min_cycle;Max_cycle;Signal;HPM_P1;HPM_P2
2019/07/24 00:00:33;;;;;;;8.549999;7.699999;;;;;;;18.69;73.69141;95457.24;;;;
2019/07/24 00:01:34;;;;;;;8.549999;7.699999;;;;;;;18.69;73.69141;95457.24;;;;
2019/07/24 00:02:35;;;;;;;8.549999;7.699999;;;;;;;18.69;73.69141;95457.24;;;;
2019/07/24 00:03:36;;;;;;;8.549999;7.699999;;;;;;;18.69;73.69141;95457.24;;;;
2019/07/24 00:04:37;;;;;;;8.3;7.500001;;;;;;;18.54;74.72363;95446.37;;;;
2019/07/24 00:05:38;;;;;;;8.3;7.500001;;;;;;;18.54;74.72363;95446.37;;;;
2019/07/24 00:06:40;;;;;;;8.3;7.500001;;;;;;;18.54;74.72363;95446.37;;;;
2019/07/24 00:07:41;;;;;;;8.3;7.500001;;;;;;;18.54;74.72363;95446.37;;;;
2019/07/24 00:08:42;;;;;;;8.3;7.500001;;;;;;;18.54;74.72363;95446.37;;;;
2019/07/24 00:09:43;;;;;;;8.3;7.500001;;;;;;;18.54;74.72363;95446.37;;;;
2019/07/24 00:10:44;;;;;;;8.3;7.500001;;;;;;;18.54;74.72363;95446.37;;;;
2019/07/24 00:11:45;;;;;;;8.3;7.500001;;;;;;;18.54;74.72363;95446.37;;;;
2019/07/24 00:12:46;;;;;;;8.3;7.500001;;;;;;;18.54;74.72363;95446.37;;;;
2019/07/24 00:13:47;;;;;;;8.3;7.500001;;;;;;;18.54;74.72363;95446.37;;;;
2019/07/24 00:14:48;;;;;;;8.3;7.500001;;;;;;;18.54;74.72363;95446.37;;;;
2019/07/24 00:15:49;;;;;;;8.300001;7.5;;;;;;;18.46;75.43945;95442.46;;;;
2019/07/24 00:16:51;;;;;;;8.300001;7.5;;;;;;;18.46;75.43945;95442.46;;;;
2019/07/24 00:17:52;;;;;;;8.300001;7.5;;;;;;;18.46;75.43945;95442.46;;;;
2019/07/24 00:18:53;;;;;;;8.300001;7.5;;;;;;;18.46;75.43945;95442.46;;;;
2019/07/24 00:19:54;;;;;;;8.300001;7.5;;;;;;;18.46;75.43945;95442.46;;;;
2019/07/24 00:20:55;;;;;;;8.300001;7.5;;;;;;;18.46;75.43945;95442.46;;;;
2019/07/24 00:21:56;;;;;;;8.300001;7.5;;;;;;;18.46;75.43945;95442.46;;;;
2019/07/24 00:22:57;;;;;;;8.300001;7.5;;;;;;;18.46;75.43945;95442.46;;;;
2019/07/24 00:23:58;;;;;;;8.300001;7.5;;;;;;;18.46;75.43945;95442.46;;;;
2019/07/24 00:25:00;;;;;;;8.300001;7.5;;;;;;;18.46;75.43945;95442.46;;;;
2019/07/24 00:26:01;;;;;;;8.549999;7.25;;;;;;;18.3;76.23047;95435.24;;;;
2019/07/24 00:27:02;;;;;;;8.549999;7.25;;;;;;;18.3;76.23047;95435.24;;;;
2019/07/24 00:28:03;;;;;;;8.549999;7.25;;;;;;;18.3;76.23047;95435.24;;;;
2019/07/24 00:29:04;;;;;;;8.549999;7.25;;;;;;;18.3;76.23047;95435.24;;;;
2019/07/24 00:30:06;;;;;;;8.549999;7.25;;;;;;;18.3;76.23047;95435.24;;;;
2019/07/24 00:31:07;;;;;;;8.549999;7.25;;;;;;;18.3;76.23047;95435.24;;;;
2019/07/24 00:32:08;;;;;;;8.549999;7.25;;;;;;;18.3;76.23047;95435.24;;;;
2019/07/24 00:33:09;;;;;;;8.549999;7.25;;;;;;;18.3;76.23047;95435.24;;;;
2019/07/24 00:34:10;;;;;;;8.549999;7.25;;;;;;;18.3;76.23047;95435.24;;;;
2019/07/24 00:35:11;;;;;;;8.549999;7.25;;;;;;;18.3;76.23047;95435.24;;;;
2019/07/24 00:36:12;;;;;;;8.549999;7.25;;;;;;;18.3;76.23047;95435.24;;;;
2019/07/24 00:37:13;;;;;;;8.05;7.25;;;;;;;18.22;77.15234;95425.28;;;;
2019/07/24 00:38:15;;;;;;;8.05;7.25;;;;;;;18.22;77.15234;95425.28;;;;
2019/07/24 00:39:16;;;;;;;8.05;7.25;;;;;;;18.22;77.15234;95425.28;;;;
2019/07/24 00:40:17;;;;;;;8.05;7.25;;;;;;;18.22;77.15234;95425.28;;;;
2019/07/24 00:41:19;;;;;;;8.05;7.25;;;;;;;18.22;77.15234;95425.28;;;;
2019/07/24 00:42:20;;;;;;;8.05;7.25;;;;;;;18.22;77.15234;95425.28;;;;
2019/07/24 00:43:21;;;;;;;8.05;7.25;;;;;;;18.22;77.15234;95425.28;;;;
2019/07/24 00:44:22;;;;;;;8.05;7.25;;;;;;;18.22;77.15234;95425.28;;;;
2019/07/24 00:45:23;;;;;;;8.05;7.25;;;;;;;18.22;77.15234;95425.28;;;;
2019/07/24 00:46:24;;;;;;;8.05;7.25;;;;;;;18.22;77.15234;95425.28;;;;
2019/07/24 00:47:25;;;;;;;8.1;7.4;;;;;;;18.08;77.98828;95411.55;;;;
2019/07/24 00:48:26;;;;;;;8.1;7.4;;;;;;;18.08;77.98828;95411.55;;;;
2019/07/24 00:49:27;;;;;;;8.1;7.4;;;;;;;18.08;77.98828;95411.55;;;;
2019/07/24 00:50:29;;;;;;;8.1;7.4;;;;;;;18.08;77.98828;95411.55;;;;
2019/07/24 00:51:30;;;;;;;8.1;7.4;;;;;;;18.08;77.98828;95411.55;;;;
2019/07/24 00:52:31;;;;;;;8.1;7.4;;;;;;;18.08;77.98828;95411.55;;;;
2019/07/24 00:53:32;;;;;;;8.1;7.4;;;;;;;18.08;77.98828;95411.55;;;;
2019/07/24 00:54:33;;;;;;;8.1;7.4;;;;;;;18.08;77.98828;95411.55;;;;
2019/07/24 00:55:34;;;;;;;8.1;7.4;;;;;;;18.08;77.98828;95411.55;;;;
2019/07/24 00:56:35;;;;;;;8.1;7.4;;;;;;;18.08;77.98828;95411.55;;;;
2019/07/24 00:57:36;;;;;;;8.500001;7.6;;;;;;;18.02;78.77051;95401.34;;;;
2019/07/24 00:58:38;;;;;;;8.500001;7.6;;;;;;;18.02;78.77051;95401.34;;;;
2019/07/24 00:59:39;;;;;;;8.500001;7.6;;;;;;;18.02;78.77051;95401.34;;;;
2019/07/24 01:00:40;;;;;;;8.500001;7.6;;;;;;;18.02;78.77051;95401.34;;;;
2019/07/24 01:01:42;;;;;;;8.500001;7.6;;;;;;;18.02;78.77051;95401.34;;;;
2019/07/24 01:02:43;;;;;;;8.500001;7.6;;;;;;;18.02;78.77051;95401.34;;;;
2019/07/24 01:03:44;;;;;;;8.500001;7.6;;;;;;;18.02;78.77051;95401.34;;;;
2019/07/24 01:04:46;;;;;;;8.500001;7.6;;;;;;;18.02;78.77051;95401.34;;;;
2019/07/24 01:05:47;;;;;;;8.500001;7.6;;;;;;;18.02;78.77051;95401.34;;;;
2019/07/24 01:06:48;;;;;;;8.500001;7.6;;;;;;;18.02;78.77051;95401.34;;;;
2019/07/24 01:07:49;;;;;;;8.500001;7.6;;;;;;;18.02;78.77051;95401.34;;;;
2019/07/24 01:08:50;;;;;;;8.1;7.299999;;;;;;;17.89;79.53809;95396.04;;;;
2019/07/24 01:09:51;;;;;;;8.1;7.299999;;;;;;;17.89;79.53809;95396.04;;;;
2019/07/24 01:10:52;;;;;;;8.1;7.299999;;;;;;;17.89;79.53809;95396.04;;;;
2019/07/24 01:11:54;;;;;;;8.1;7.299999;;;;;;;17.89;79.53809;95396.04;;;;
2019/07/24 01:12:55;;;;;;;8.1;7.299999;;;;;;;17.89;79.53809;95396.04;;;;
2019/07/24 01:13:56;;;;;;;8.1;7.299999;;;;;;;17.89;79.53809;95396.04;;;;
2019/07/24 01:14:57;;;;;;;8.1;7.299999;;;;;;;17.89;79.53809;95396.04;;;;
2019/07/24 01:15:58;;;;;;;8.1;7.299999;;;;;;;17.89;79.53809;95396.04;;;;
2019/07/24 01:16:59;;;;;;;8.1;7.299999;;;;;;;17.89;79.53809;95396.04;;;;
2019/07/24 01:18:00;;;;;;;8.1;7.299999;;;;;;;17.89;79.53809;95396.04;;;;
2019/07/24 01:19:02;;;;;;;8.399999;7.599999;;;;;;;17.83;80.31152;95386.1;;;;
2019/07/24 01:20:03;;;;;;;8.399999;7.599999;;;;;;;17.83;80.31152;95386.1;;;;
2019/07/24 01:21:06;;;;;;;8.399999;7.599999;;;;;;;17.83;80.31152;95386.1;;;;
2019/07/24 01:22:07;;;;;;;8.399999;7.599999;;;;;;;17.83;80.31152;95386.1;;;;
2019/07/24 01:23:08;;;;;;;8.399999;7.599999;;;;;;;17.83;80.31152;95386.1;;;;
2019/07/24 01:24:09;;;;;;;8.399999;7.599999;;;;;;;17.83;80.31152;95386.1;;;;
2019/07/24 01:25:10;;;;;;;8.399999;7.599999;;;;;;;17.83;80.31152;95386.1;;;;
2019/07/24 01:26:11;;;;;;;8.399999;7.599999;;;;;;;17.83;80.31152;95386.1;;;;
2019/07/24 01:27:13;;;;;;;8.399999;7.599999;;;;;;;17.83;80.31152;95386.1;;;;
2019/07/24 01:28:14;;;;;;;8.399999;7.599999;;;;;;;17.83;80.31152;95386.1;;;;
2019/07/24 01:29:15;;;;;;;8.050001;7.249999;;;;;;;17.72;81.05176;95386.8;;;;
2019/07/24 01:30:16;;;;;;;8.050001;7.249999;;;;;;;17.72;81.05176;95386.8;;;;
2019/07/24 01:31:18;;;;;;;8.050001;7.249999;;;;;;;17.72;81.05176;95386.8;;;;
2019/07/24 01:32:19;;;;;;;8.050001;7.249999;;;;;;;17.72;81.05176;95386.8;;;;
2019/07/24 01:33:20;;;;;;;8.050001;7.249999;;;;;;;17.72;81.05176;95386.8;;;;
2019/07/24 01:34:21;;;;;;;8.050001;7.249999;;;;;;;17.72;81.05176;95386.8;;;;
2019/07/24 01:35:22;;;;;;;8.050001;7.249999;;;;;;;17.72;81.05176;95386.8;;;;
2019/07/24 01:36:23;;;;;;;8.050001;7.249999;;;;;;;17.72;81.05176;95386.8;;;;
2019/07/24 01:37:24;;;;;;;8.050001;7.249999;;;;;;;17.72;81.05176;95386.8;;;;
2019/07/24 01:38:26;;;;;;;8.050001;7.249999;;;;;;;17.72;81.05176;95386.8;;;;
2019/07/24 01:39:27;;;;;;;8.050001;7.249999;;;;;;;17.72;81.05176;95386.8;;;;
2019/07/24 01:40:28;;;;;;;7.95;7.25;;;;;;;17.66;81.73535;95365.14;;;;
2019/07/24 01:41:29;;;;;;;7.95;7.25;;;;;;;17.66;81.73535;95365.14;;;;
2019/07/24 01:42:30;;;;;;;7.95;7.25;;;;;;;17.66;81.73535;95365.14;;;;
2019/07/24 01:43:31;;;;;;;7.95;7.25;;;;;;;17.66;81.73535;95365.14;;;;
2019/07/24 01:44:33;;;;;;;7.95;7.25;;;;;;;17.66;81.73535;95365.14;;;;
2019/07/24 01:45:34;;;;;;;7.95;7.25;;;;;;;17.66;81.73535;95365.14;;;;
2019/07/24 01:46:35;;;;;;;7.95;7.25;;;;;;;17.66;81.73535;95365.14;;;;
2019/07/24 01:47:36;;;;;;;7.95;7.25;;;;;;;17.66;81.73535;95365.14;;;;
2019/07/24 01:48:37;;;;;;;7.95;7.25;;;;;;;17.66;81.73535;95365.14;;;;
2019/07/24 01:49:38;;;;;;;7.95;7.25;;;;;;;17.66;81.73535;95365.14;;;;
2019/07/24 01:50:40;;;;;;;8.1;7.3;;;;;;;17.54;82.20117;95360.1;;;;
2019/07/24 01:51:41;;;;;;;8.1;7.3;;;;;;;17.54;82.20117;95360.1;;;;
2019/07/24 01:52:42;;;;;;;8.1;7.3;;;;;;;17.54;82.20117;95360.1;;;;
2019/07/24 01:53:43;;;;;;;8.1;7.3;;;;;;;17.54;82.20117;95360.1;;;;
2019/07/24 01:54:44;;;;;;;8.1;7.3;;;;;;;17.54;82.20117;95360.1;;;;
2019/07/24 01:55:45;;;;;;;8.1;7.3;;;;;;;17.54;82.20117;95360.1;;;;
2019/07/24 01:56:46;;;;;;;8.1;7.3;;;;;;;17.54;82.20117;95360.1;;;;
2019/07/24 01:57:48;;;;;;;8.1;7.3;;;;;;;17.54;82.20117;95360.1;;;;
2019/07/24 01:58:49;;;;;;;8.1;7.3;;;;;;;17.54;82.20117;95360.1;;;;
2019/07/24 01:59:50;;;;;;;8.1;7.3;;;;;;;17.54;82.20117;95360.1;;;;
2019/07/24 02:00:51;;;;;;;8.1;7.3;;;;;;;17.54;82.20117;95360.1;;;;
2019/07/24 02:01:53;;;;;;;7.9;7.150001;;;;;;;17.47;82.95898;95361.35;;;;
2019/07/24 02:02:54;;;;;;;7.9;7.150001;;;;;;;17.47;82.95898;95361.35;;;;
2019/07/24 02:03:55;;;;;;;7.9;7.150001;;;;;;;17.47;82.95898;95361.35;;;;
2019/07/24 02:04:56;;;;;;;7.9;7.150001;;;;;;;17.47;82.95898;95361.35;;;;
2019/07/24 02:05:57;;;;;;;7.9;7.150001;;;;;;;17.47;82.95898;95361.35;;;;
2019/07/24 02:06:59;;;;;;;7.9;7.150001;;;;;;;17.47;82.95898;95361.35;;;;
2019/07/24 02:08:00;;;;;;;7.9;7.150001;;;;;;;17.47;82.95898;95361.35;;;;
2019/07/24 02:09:02;;;;;;;7.9;7.150001;;;;;;;17.47;82.95898;95361.35;;;;
2019/07/24 02:10:04;;;;;;;7.9;7.150001;;;;;;;17.47;82.95898;95361.35;;;;
2019/07/24 02:11:07;;;;;;;7.9;7.150001;;;;;;;17.47;82.95898;95361.35;;;;
2019/07/24 02:12:08;;;;;;;8.55;7.75;;;;;;;17.35;83.59766;95344.84;;;;
2019/07/24 02:13:09;;;;;;;8.55;7.75;;;;;;;17.35;83.59766;95344.84;;;;
2019/07/24 02:14:11;;;;;;;8.55;7.75;;;;;;;17.35;83.59766;95344.84;;;;
2019/07/24 02:15:12;;;;;;;8.55;7.75;;;;;;;17.35;83.59766;95344.84;;;;
2019/07/24 02:16:14;;;;;;;8.55;7.75;;;;;;;17.35;83.59766;95344.84;;;;
2019/07/24 02:17:15;;;;;;;8.55;7.75;;;;;;;17.35;83.59766;95344.84;;;;
2019/07/24 02:18:17;;;;;;;8.55;7.75;;;;;;;17.35;83.59766;95344.84;;;;
2019/07/24 02:19:18;;;;;;;8.55;7.75;;;;;;;17.35;83.59766;95344.84;;;;
2019/07/24 02:20:19;;;;;;;8.55;7.75;;;;;;;17.35;83.59766;95344.84;;;;
2019/07/24 02:21:20;;;;;;;8.55;7.75;;;;;;;17.35;83.59766;95344.84;;;;
2019/07/24 02:22:21;;;;;;;8.6;7.8;;;;;;;17.3;84.21484;95349.08;;;;
2019/07/24 02:23:23;;;;;;;8.6;7.8;;;;;;;17.3;84.21484;95349.08;;;;
2019/07/24 02:24:24;;;;;;;8.6;7.8;;;;;;;17.3;84.21484;95349.08;;;;
2019/07/24 02:25:26;;;;;;;8.6;7.8;;;;;;;17.3;84.21484;95349.08;;;;
2019/07/24 02:26:27;;;;;;;8.6;7.8;;;;;;;17.3;84.21484;95349.08;;;;
2019/07/24 02:27:28;;;;;;;8.6;7.8;;;;;;;17.3;84.21484;95349.08;;;;
2019/07/24 02:28:29;;;;;;;8.6;7.8;;;;;;;17.3;84.21484;95349.08;;;;
2019/07/24 02:29:30;;;;;;;8.6;7.8;;;;;;;17.3;84.21484;95349.08;;;;
2019/07/24 02:30:31;;;;;;;8.6;7.8;;;;;;;17.3;84.21484;95349.08;;;;
2019/07/24 02:31:32;;;;;;;8.6;7.8;;;;;;;17.3;84.21484;95349.08;;;;
2019/07/24 02:32:36;;;;;;;8.6;7.8;;;;;;;17.3;84.21484;95349.08;;;;
2019/07/24 02:33:38;;;;;;;8.200002;7.5;;;;;;;17.15;84.89258;95347.19;;;;
2019/07/24 02:34:39;;;;;;;8.200002;7.5;;;;;;;17.15;84.89258;95347.19;;;;
2019/07/24 02:35:40;;;;;;;8.200002;7.5;;;;;;;17.15;84.89258;95347.19;;;;
2019/07/24 02:36:42;;;;;;;8.200002;7.5;;;;;;;17.15;84.89258;95347.19;;;;
2019/07/24 02:37:43;;;;;;;8.200002;7.5;;;;;;;17.15;84.89258;95347.19;;;;
2019/07/24 02:38:44;;;;;;;8.200002;7.5;;;;;;;17.15;84.89258;95347.19;;;;
2019/07/24 02:39:45;;;;;;;8.200002;7.5;;;;;;;17.15;84.89258;95347.19;;;;
2019/07/24 02:40:46;;;;;;;8.200002;7.5;;;;;;;17.15;84.89258;95347.19;;;;
2019/07/24 02:41:47;;;;;;;8.200002;7.5;;;;;;;17.15;84.89258;95347.19;;;;
2019/07/24 02:42:49;;;;;;;8.200002;7.5;;;;;;;17.15;84.89258;95347.19;;;;
2019/07/24 02:43:50;;;;;;;9.3;8.299999;;;;;;;17.09;85.66992;95346.91;;;;
2019/07/24 02:44:52;;;;;;;9.3;8.299999;;;;;;;17.09;85.66992;95346.91;;;;
2019/07/24 02:45:53;;;;;;;9.3;8.299999;;;;;;;17.09;85.66992;95346.91;;;;
2019/07/24 02:47:14;;;;;;;9.3;8.299999;;;;;;;17.09;85.66992;95346.91;;;;
2019/07/24 02:48:15;;;;;;;9.3;8.299999;;;;;;;17.09;85.66992;95346.91;;;;
2019/07/24 02:49:16;;;;;;;9.3;8.299999;;;;;;;17.09;85.66992;95346.91;;;;
2019/07/24 02:50:17;;;;;;;9.3;8.299999;;;;;;;17.09;85.66992;95346.91;;;;
2019/07/24 02:51:19;;;;;;;9.3;8.299999;;;;;;;17.09;85.66992;95346.91;;;;
2019/07/24 02:52:20;;;;;;;9.3;8.299999;;;;;;;17.09;85.66992;95346.91;;;;
2019/07/24 02:53:21;;;;;;;9.3;8.299999;;;;;;;17.09;85.66992;95346.91;;;;
2019/07/24 02:54:22;;;;;;;8.75;7.95;;;;;;;16.96;86.25098;95352.53;;;;
2019/07/24 02:55:23;;;;;;;8.75;7.95;;;;;;;16.96;86.25098;95352.53;;;;
2019/07/24 02:56:24;;;;;;;8.75;7.95;;;;;;;16.96;86.25098;95352.53;;;;
2019/07/24 02:57:25;;;;;;;8.75;7.95;;;;;;;16.96;86.25098;95352.53;;;;
2019/07/24 02:58:26;;;;;;;8.75;7.95;;;;;;;16.96;86.25098;95352.53;;;;
2019/07/24 02:59:28;;;;;;;8.75;7.95;;;;;;;16.96;86.25098;95352.53;;;;
2019/07/24 03:00:29;;;;;;;8.75;7.95;;;;;;;16.96;86.25098;95352.53;;;;
2019/07/24 03:01:30;;;;;;;8.75;7.95;;;;;;;16.96;86.25098;95352.53;;;;
2019/07/24 03:02:31;;;;;;;8.75;7.95;;;;;;;16.96;86.25098;95352.53;;;;
2019/07/24 03:03:32;;;;;;;8.75;7.95;;;;;;;16.96;86.25098;95352.53;;;;
2019/07/24 03:04:33;;;;;;;8.75;7.95;;;;;;;16.96;86.25098;95352.53;;;;
2019/07/24 03:05:34;;;;;;;8.65;7.8;;;;;;;16.9;87.00977;95356.22;;;;
2019/07/24 03:06:35;;;;;;;8.65;7.8;;;;;;;16.9;87.00977;95356.22;;;;
2019/07/24 03:07:36;;;;;;;8.65;7.8;;;;;;;16.9;87.00977;95356.22;;;;
2019/07/24 03:08:37;;;;;;;8.65;7.8;;;;;;;16.9;87.00977;95356.22;;;;
2019/07/24 03:09:39;;;;;;;8.65;7.8;;;;;;;16.9;87.00977;95356.22;;;;
2019/07/24 03:10:40;;;;;;;8.65;7.8;;;;;;;16.9;87.00977;95356.22;;;;
2019/07/24 03:11:41;;;;;;;8.65;7.8;;;;;;;16.9;87.00977;95356.22;;;;
2019/07/24 03:12:42;;;;;;;8.65;7.8;;;;;;;16.9;87.00977;95356.22;;;;
2019/07/24 03:13:43;;;;;;;8.65;7.8;;;;;;;16.9;87.00977;95356.22;;;;
2019/07/24 03:14:44;;;;;;;8.65;7.8;;;;;;;16.9;87.00977;95356.22;;;;
2019/07/24 03:15:45;;;;;;;9;8.050001;;;;;;;16.79;87.75293;95351.03;;;;
2019/07/24 03:16:46;;;;;;;9;8.050001;;;;;;;16.79;87.75293;95351.03;;;;
2019/07/24 03:17:47;;;;;;;9;8.050001;;;;;;;16.79;87.75293;95351.03;;;;
2019/07/24 03:18:49;;;;;;;9;8.050001;;;;;;;16.79;87.75293;95351.03;;;;
2019/07/24 03:19:50;;;;;;;9;8.050001;;;;;;;16.79;87.75293;95351.03;;;;
2019/07/24 03:20:51;;;;;;;9;8.050001;;;;;;;16.79;87.75293;95351.03;;;;
2019/07/24 03:21:52;;;;;;;9;8.050001;;;;;;;16.79;87.75293;95351.03;;;;
2019/07/24 03:22:53;;;;;;;9;8.050001;;;;;;;16.79;87.75293;95351.03;;;;
2019/07/24 03:23:54;;;;;;;9;8.050001;;;;;;;16.79;87.75293;95351.03;;;;
2019/07/24 03:24:55;;;;;;;9;8.050001;;;;;;;16.79;87.75293;95351.03;;;;
2019/07/24 03:25:56;;;;;;;9.599999;8.6;;;;;;;16.75;88.3291;95349.39;;;;
2019/07/24 03:26:57;;;;;;;9.599999;8.6;;;;;;;16.75;88.3291;95349.39;;;;
2019/07/24 03:27:58;;;;;;;9.599999;8.6;;;;;;;16.75;88.3291;95349.39;;;;
2019/07/24 03:28:59;;;;;;;9.599999;8.6;;;;;;;16.75;88.3291;95349.39;;;;
2019/07/24 03:30:00;;;;;;;9.599999;8.6;;;;;;;16.75;88.3291;95349.39;;;;
2019/07/24 03:31:03;;;;;;;9.599999;8.6;;;;;;;16.75;88.3291;95349.39;;;;
2019/07/24 03:32:13;;;;;;;9.599999;8.6;;;;;;;16.75;88.3291;95349.39;;;;
2019/07/24 03:33:14;;;;;;;9.599999;8.6;;;;;;;16.75;88.3291;95349.39;;;;
2019/07/24 03:34:15;;;;;;;9.599999;8.6;;;;;;;16.75;88.3291;95349.39;;;;
2019/07/24 03:35:16;;;;;;;9.599999;8.6;;;;;;;16.75;88.3291;95349.39;;;;
2019/07/24 03:36:17;;;;;;;9.599999;8.6;;;;;;;16.75;88.3291;95349.39;;;;
2019/07/24 03:37:18;;;;;;;9.200002;8.35;;;;;;;16.65;88.80762;95359.36;;;;
2019/07/24 03:38:19;;;;;;;9.200002;8.35;;;;;;;16.65;88.80762;95359.36;;;;
2019/07/24 03:39:21;;;;;;;9.200002;8.35;;;;;;;16.65;88.80762;95359.36;;;;
2019/07/24 03:40:22;;;;;;;9.200002;8.35;;;;;;;16.65;88.80762;95359.36;;;;
2019/07/24 03:41:23;;;;;;;9.200002;8.35;;;;;;;16.65;88.80762;95359.36;;;;
2019/07/24 03:42:24;;;;;;;9.200002;8.35;;;;;;;16.65;88.80762;95359.36;;;;
2019/07/24 03:43:25;;;;;;;9.200002;8.35;;;;;;;16.65;88.80762;95359.36;;;;
2019/07/24 03:44:26;;;;;;;9.200002;8.35;;;;;;;16.65;88.80762;95359.36;;;;
2019/07/24 03:45:27;;;;;;;9.200002;8.35;;;;;;;16.65;88.80762;95359.36;;;;
2019/07/24 03:46:29;;;;;;;9.200002;8.35;;;;;;;16.65;88.80762;95359.36;;;;
2019/07/24 03:47:30;;;;;;;9.05;8.25;;;;;;;16.64;89.46289;95376.93;;;;
2019/07/24 03:48:31;;;;;;;9.05;8.25;;;;;;;16.64;89.46289;95376.93;;;;
2019/07/24 03:49:32;;;;;;;9.05;8.25;;;;;;;16.64;89.46289;95376.93;;;;
2019/07/24 03:50:33;;;;;;;9.05;8.25;;;;;;;16.64;89.46289;95376.93;;;;
2019/07/24 03:51:34;;;;;;;9.05;8.25;;;;;;;16.64;89.46289;95376.93;;;;
2019/07/24 03:52:35;;;;;;;9.05;8.25;;;;;;;16.64;89.46289;95376.93;;;;
2019/07/24 03:53:36;;;;;;;9.05;8.25;;;;;;;16.64;89.46289;95376.93;;;;
2019/07/24 03:54:37;;;;;;;9.05;8.25;;;;;;;16.64;89.46289;95376.93;;;;
2019/07/24 03:55:38;;;;;;;9.05;8.25;;;;;;;16.64;89.46289;95376.93;;;;
2019/07/24 03:56:39;;;;;;;9.05;8.25;;;;;;;16.64;89.46289;95376.93;;;;
2019/07/24 03:57:40;;;;;;;8.649999;7.7;;;;;;;16.57;89.8916;95372.69;;;;
2019/07/24 03:58:42;;;;;;;8.649999;7.7;;;;;;;16.57;89.8916;95372.69;;;;
2019/07/24 03:59:43;;;;;;;8.649999;7.7;;;;;;;16.57;89.8916;95372.69;;;;
2019/07/24 04:00:44;;;;;;;8.649999;7.7;;;;;;;16.57;89.8916;95372.69;;;;
2019/07/24 04:01:45;;;;;;;8.649999;7.7;;;;;;;16.57;89.8916;95372.69;;;;
2019/07/24 04:02:46;;;;;;;8.649999;7.7;;;;;;;16.57;89.8916;95372.69;;;;
2019/07/24 04:03:47;;;;;;;8.649999;7.7;;;;;;;16.57;89.8916;95372.69;;;;
2019/07/24 04:04:48;;;;;;;8.649999;7.7;;;;;;;16.57;89.8916;95372.69;;;;
2019/07/24 04:05:49;;;;;;;8.649999;7.7;;;;;;;16.57;89.8916;95372.69;;;;
2019/07/24 04:06:50;;;;;;;8.649999;7.7;;;;;;;16.57;89.8916;95372.69;;;;
2019/07/24 04:07:51;;;;;;;8.649999;7.7;;;;;;;16.57;89.8916;95372.69;;;;
2019/07/24 04:08:52;;;;;;;8.799998;7.799999;;;;;;;16.64;90.19922;95360.42;;;;
2019/07/24 04:09:53;;;;;;;8.799998;7.799999;;;;;;;16.64;90.19922;95360.42;;;;
2019/07/24 04:10:55;;;;;;;8.799998;7.799999;;;;;;;16.64;90.19922;95360.42;;;;
2019/07/24 04:11:56;;;;;;;8.799998;7.799999;;;;;;;16.64;90.19922;95360.42;;;;
2019/07/24 04:12:57;;;;;;;8.799998;7.799999;;;;;;;16.64;90.19922;95360.42;;;;
2019/07/24 04:13:58;;;;;;;8.799998;7.799999;;;;;;;16.64;90.19922;95360.42;;;;
2019/07/24 04:14:59;;;;;;;8.799998;7.799999;;;;;;;16.64;90.19922;95360.42;;;;
2019/07/24 04:16:00;;;;;;;8.799998;7.799999;;;;;;;16.64;90.19922;95360.42;;;;
2019/07/24 04:17:01;;;;;;;8.799998;7.799999;;;;;;;16.64;90.19922;95360.42;;;;
2019/07/24 04:18:03;;;;;;;8.799998;7.799999;;;;;;;16.64;90.19922;95360.42;;;;
2019/07/24 04:19:04;;;;;;;8.600001;7.9;;;;;;;16.69;90.46777;95369.17;;;;
2019/07/24 04:20:05;;;;;;;8.600001;7.9;;;;;;;16.69;90.46777;95369.17;;;;
2019/07/24 04:21:06;;;;;;;8.600001;7.9;;;;;;;16.69;90.46777;95369.17;;;;
2019/07/24 04:22:07;;;;;;;8.600001;7.9;;;;;;;16.69;90.46777;95369.17;;;;
2019/07/24 04:23:09;;;;;;;8.600001;7.9;;;;;;;16.69;90.46777;95369.17;;;;
2019/07/24 04:24:10;;;;;;;8.600001;7.9;;;;;;;16.69;90.46777;95369.17;;;;
2019/07/24 04:25:11;;;;;;;8.600001;7.9;;;;;;;16.69;90.46777;95369.17;;;;
2019/07/24 04:26:12;;;;;;;8.600001;7.9;;;;;;;16.69;90.46777;95369.17;;;;
2019/07/24 04:27:13;;;;;;;8.600001;7.9;;;;;;;16.69;90.46777;95369.17;;;;
2019/07/24 04:28:14;;;;;;;8.600001;7.9;;;;;;;16.69;90.46777;95369.17;;;;
2019/07/24 04:29:15;;;;;;;8.600001;7.9;;;;;;;16.69;90.46777;95369.17;;;;
2019/07/24 04:30:16;;;;;;;8.25;7.5;;;;;;;16.83;90.67871;95365.34;;;;
2019/07/24 04:31:18;;;;;;;8.25;7.5;;;;;;;16.83;90.67871;95365.34;;;;
2019/07/24 04:32:19;;;;;;;8.25;7.5;;;;;;;16.83;90.67871;95365.34;;;;
2019/07/24 04:33:20;;;;;;;8.25;7.5;;;;;;;16.83;90.67871;95365.34;;;;
2019/07/24 04:34:21;;;;;;;8.25;7.5;;;;;;;16.83;90.67871;95365.34;;;;
2019/07/24 04:35:22;;;;;;;8.25;7.5;;;;;;;16.83;90.67871;95365.34;;;;
2019/07/24 04:36:23;;;;;;;8.25;7.5;;;;;;;16.83;90.67871;95365.34;;;;
2019/07/24 04:37:24;;;;;;;8.25;7.5;;;;;;;16.83;90.67871;95365.34;;;;
2019/07/24 04:38:25;;;;;;;8.25;7.5;;;;;;;16.83;90.67871;95365.34;;;;
2019/07/24 04:39:26;;;;;;;8.25;7.5;;;;;;;16.83;90.67871;95365.34;;;;
2019/07/24 04:40:27;;;;;;;8.899999;7.799999;;;;;;;16.94;90.87402;95362.89;;;;
2019/07/24 04:41:28;;;;;;;8.899999;7.799999;;;;;;;16.94;90.87402;95362.89;;;;
2019/07/24 04:42:29;;;;;;;8.899999;7.799999;;;;;;;16.94;90.87402;95362.89;;;;
2019/07/24 04:43:31;;;;;;;8.899999;7.799999;;;;;;;16.94;90.87402;95362.89;;;;
2019/07/24 04:44:32;;;;;;;8.899999;7.799999;;;;;;;16.94;90.87402;95362.89;;;;
2019/07/24 04:45:33;;;;;;;8.899999;7.799999;;;;;;;16.94;90.87402;95362.89;;;;
2019/07/24 04:46:34;;;;;;;8.899999;7.799999;;;;;;;16.94;90.87402;95362.89;;;;
2019/07/24 04:47:35;;;;;;;8.899999;7.799999;;;;;;;16.94;90.87402;95362.89;;;;
2019/07/24 04:48:36;;;;;;;8.899999;7.799999;;;;;;;16.94;90.87402;95362.89;;;;
2019/07/24 04:49:37;;;;;;;8.899999;7.799999;;;;;;;16.94;90.87402;95362.89;;;;
2019/07/24 04:50:38;;;;;;;8.1;7.3;;;;;;;17.16;91.08301;95370.09;;;;
2019/07/24 04:51:40;;;;;;;8.1;7.3;;;;;;;17.16;91.08301;95370.09;;;;
2019/07/24 04:52:41;;;;;;;8.1;7.3;;;;;;;17.16;91.08301;95370.09;;;;
2019/07/24 04:53:42;;;;;;;8.1;7.3;;;;;;;17.16;91.08301;95370.09;;;;
2019/07/24 04:54:43;;;;;;;8.1;7.3;;;;;;;17.16;91.08301;95370.09;;;;
2019/07/24 04:55:44;;;;;;;8.1;7.3;;;;;;;17.16;91.08301;95370.09;;;;
2019/07/24 04:56:45;;;;;;;8.1;7.3;;;;;;;17.16;91.08301;95370.09;;;;
2019/07/24 04:57:46;;;;;;;8.1;7.3;;;;;;;17.16;91.08301;95370.09;;;;
2019/07/24 04:58:47;;;;;;;8.1;7.3;;;;;;;17.16;91.08301;95370.09;;;;
2019/07/24 04:59:48;;;;;;;8.1;7.3;;;;;;;17.16;91.08301;95370.09;;;;
2019/07/24 05:00:49;;;;;;;8.1;7.3;;;;;;;17.16;91.08301;95370.09;;;;
2019/07/24 05:01:50;;;;;;;8.75;7.500001;;;;;;;17.42;90.99414;95389.58;;;;
2019/07/24 05:02:52;;;;;;;8.75;7.500001;;;;;;;17.42;90.99414;95389.58;;;;
2019/07/24 05:03:53;;;;;;;8.75;7.500001;;;;;;;17.42;90.99414;95389.58;;;;
2019/07/24 05:04:54;;;;;;;8.75;7.500001;;;;;;;17.42;90.99414;95389.58;;;;
2019/07/24 05:05:55;;;;;;;8.75;7.500001;;;;;;;17.42;90.99414;95389.58;;;;
2019/07/24 05:06:57;;;;;;;8.75;7.500001;;;;;;;17.42;90.99414;95389.58;;;;
2019/07/24 05:07:59;;;;;;;8.75;7.500001;;;;;;;17.42;90.99414;95389.58;;;;
2019/07/24 05:09:02;;;;;;;8.75;7.500001;;;;;;;17.42;90.99414;95389.58;;;;
2019/07/24 05:10:05;;;;;;;8.75;7.500001;;;;;;;17.42;90.99414;95389.58;;;;
2019/07/24 05:11:07;;;;;;;8.75;7.500001;;;;;;;17.42;90.99414;95389.58;;;;
2019/07/24 05:12:09;;;;;;;7.65;6.950001;;;;;;;17.89;90.85254;95385.53;;;;
2019/07/24 05:13:13;;;;;;;7.65;6.950001;;;;;;;17.89;90.85254;95385.53;;;;
2019/07/24 05:14:17;;;;;;;7.65;6.950001;;;;;;;17.89;90.85254;95385.53;;;;
2019/07/24 05:15:20;;;;;;;7.65;6.950001;;;;;;;17.89;90.85254;95385.53;;;;
2019/07/24 05:16:28;;;;;;;7.65;6.950001;;;;;;;17.89;90.85254;95385.53;;;;
2019/07/24 05:17:32;;;;;;;7.65;6.950001;;;;;;;17.89;90.85254;95385.53;;;;
2019/07/24 05:18:38;;;;;;;7.65;6.950001;;;;;;;17.89;90.85254;95385.53;;;;
2019/07/24 05:19:43;;;;;;;7.65;6.950001;;;;;;;17.89;90.85254;95385.53;;;;
2019/07/24 05:20:46;;;;;;;7.65;6.950001;;;;;;;17.89;90.85254;95385.53;;;;
2019/07/24 05:21:53;;;;;;;7.65;6.950001;;;;;;;17.89;90.85254;95385.53;;;;
2019/07/24 05:22:56;;;;;;;8.500001;7.400001;;;;;;;18.44;90.04199;95386.25;;;;
2019/07/24 05:23:58;;;;;;;8.500001;7.400001;;;;;;;18.44;90.04199;95386.25;;;;
2019/07/24 05:25:05;;;;;;;8.500001;7.400001;;;;;;;18.44;90.04199;95386.25;;;;
2019/07/24 05:26:08;;;;;;;8.500001;7.400001;;;;;;;18.44;90.04199;95386.25;;;;
2019/07/24 05:27:12;;;;;;;8.500001;7.400001;;;;;;;18.44;90.04199;95386.25;;;;
2019/07/24 05:28:14;;;;;;;8.500001;7.400001;;;;;;;18.44;90.04199;95386.25;;;;
2019/07/24 05:29:17;;;;;;;8.500001;7.400001;;;;;;;18.44;90.04199;95386.25;;;;
2019/07/24 05:30:20;;;;;;;8.500001;7.400001;;;;;;;18.44;90.04199;95386.25;;;;
2019/07/24 05:31:23;;;;;;;8.500001;7.400001;;;;;;;18.44;90.04199;95386.25;;;;
2019/07/24 05:32:30;;;;;;;8.500001;7.400001;;;;;;;18.44;90.04199;95386.25;;;;
2019/07/24 05:33:35;;;;;;;8.450002;7.65;;;;;;;19.07;89.31348;95373.36;;;;
2019/07/24 05:34:39;;;;;;;8.450002;7.65;;;;;;;19.07;89.31348;95373.36;;;;
2019/07/24 05:35:45;;;;;;;8.450002;7.65;;;;;;;19.07;89.31348;95373.36;;;;
2019/07/24 05:37:06;;;;;;;8.450002;7.65;;;;;;;19.07;89.31348;95373.36;;;;